createdAt,value
2023-02-11T00:01:37.274Z,100266.63
2023-02-11T00:04:06.285Z,100274.28
2023-02-11T00:06:35.334Z,100264.63
2023-02-11T00:09:02.295Z,100261.13
2023-02-11T00:11:32.659Z,100264.50
2023-02-11T00:14:03.480Z,100248.72
2023-02-11T00:16:31.820Z,100246.94
2023-02-11T00:19:02.972Z,100246.09
2023-02-11T00:21:29.644Z,100240.94
2023-02-11T00:23:58.622Z,100248.09
2023-02-11T00:26:33.036Z,100234.31
2023-02-11T00:29:00.883Z,100238.72
2023-02-11T00:31:28.294Z,100237.84
2023-02-11T00:33:55.353Z,100229.28
2023-02-11T00:36:25.914Z,100220.59
2023-02-11T00:38:54.660Z,100213.66
2023-02-11T00:41:22.808Z,100217.13
2023-02-11T00:43:50.442Z,100219.88
2023-02-11T00:46:17.115Z,100223.41
2023-02-11T00:48:43.867Z,100217.28
2023-02-11T00:51:10.866Z,100214.78
2023-02-11T00:53:38.045Z,100219.03
2023-02-11T00:56:05.725Z,100218.22
2023-02-11T00:58:32.565Z,100205.25
2023-02-11T01:00:59.183Z,100200.13
2023-02-11T01:03:26.165Z,100209.53
2023-02-11T01:05:53.104Z,100207.88
2023-02-11T01:08:19.986Z,100205.22
2023-02-11T01:11:01.480Z,100200.13
2023-02-11T01:13:32.767Z,100199.38
2023-02-11T01:15:59.932Z,100202.09
2023-02-11T01:18:27.297Z,100202.13
2023-02-11T01:20:54.426Z,100203.75
2023-02-11T01:23:21.572Z,100198.47
2023-02-11T01:25:48.981Z,100196.66
2023-02-11T01:28:27.714Z,100202.66
2023-02-11T01:30:55.830Z,100196.59
2023-02-11T01:33:23.906Z,100196.63
2023-02-11T01:35:50.872Z,100204.50
2023-02-11T01:38:22.033Z,100205.38
2023-02-11T01:40:57.791Z,100208.75
2023-02-11T01:43:26.932Z,100205.22
2023-02-11T01:46:00.467Z,100207.69
2023-02-11T01:48:36.266Z,100207.75
2023-02-11T01:51:26.979Z,100206.94
2023-02-11T01:54:14.830Z,100209.50
2023-02-11T01:57:07.617Z,100226.03
2023-02-11T01:59:45.872Z,100228.66
2023-02-11T02:02:17.750Z,100222.44
2023-02-11T02:05:04.643Z,100220.59
2023-02-11T02:07:47.162Z,100218.81
2023-02-11T02:10:21.013Z,100223.84
2023-02-11T02:12:47.549Z,100213.44
2023-02-11T02:15:39.060Z,100214.25
2023-02-11T02:19:16.281Z,100209.81
2023-02-11T02:21:48.363Z,100207.25
2023-02-11T02:24:56.540Z,100194.41
2023-02-11T02:27:27.503Z,100204.97
2023-02-11T02:30:53.210Z,100201.25
2023-02-11T02:33:49.924Z,100197.13
2023-02-11T02:36:47.723Z,100203.22
2023-02-11T02:39:33.753Z,100198.00
2023-02-11T02:42:01.831Z,100204.13
2023-02-11T02:44:29.919Z,100190.22
2023-02-11T02:46:56.711Z,100178.78
2023-02-11T02:49:23.538Z,100176.03
2023-02-11T02:52:05.997Z,100170.72
2023-02-11T02:55:11.455Z,100162.06
2023-02-11T02:58:19.492Z,100165.00
2023-02-11T03:01:34.628Z,100169.53
2023-02-11T03:04:30.900Z,100149.50
2023-02-11T03:07:20.747Z,100143.31
2023-02-11T03:10:00.435Z,100138.97
2023-02-11T03:12:32.404Z,100143.44
2023-02-11T03:15:02.377Z,100136.34
2023-02-11T03:17:34.940Z,100124.09
2023-02-11T03:20:05.651Z,100122.22
2023-02-11T03:22:49.995Z,100118.84
2023-02-11T03:25:17.400Z,100132.75
2023-02-11T03:27:54.770Z,100128.47
2023-02-11T03:30:39.757Z,100132.09
2023-02-11T03:33:23.136Z,100127.81
2023-02-11T03:36:03.373Z,100127.81
2023-02-11T03:38:41.166Z,100126.16
2023-02-11T03:41:12.516Z,100136.47
2023-02-11T03:43:47.279Z,100146.78
2023-02-11T03:46:18.364Z,100152.03
2023-02-11T03:48:52.373Z,100148.53
2023-02-11T03:51:27.428Z,100148.34
2023-02-11T03:53:59.502Z,100140.50
2023-02-11T03:56:36.598Z,100137.84
2023-02-11T03:59:03.208Z,100133.41
2023-02-11T04:01:29.731Z,100159.50
2023-02-11T04:03:56.229Z,100159.53
2023-02-11T04:06:23.002Z,100149.03
2023-02-11T04:08:49.505Z,100136.84
2023-02-11T04:11:15.972Z,100128.00
2023-02-11T04:13:42.421Z,100124.56
2023-02-11T04:16:08.922Z,100118.41
2023-02-11T04:18:35.373Z,100126.22
2023-02-11T04:21:01.911Z,100116.91
2023-02-11T04:23:28.470Z,100116.84
2023-02-11T04:25:54.909Z,100117.59
2023-02-11T04:28:21.755Z,100103.72
2023-02-11T04:30:51.445Z,100117.53
2023-02-11T04:33:18.245Z,100117.50
2023-02-11T04:35:50.909Z,100112.28
2023-02-11T04:38:17.881Z,100101.91
2023-02-11T04:40:44.382Z,100102.84
2023-02-11T04:43:10.910Z,100102.75
2023-02-11T04:45:37.508Z,100097.56
2023-02-11T04:48:04.509Z,100091.28
2023-02-11T04:50:31.040Z,100092.94
2023-02-11T04:52:57.575Z,100083.59
2023-02-11T04:55:24.219Z,100081.03
2023-02-11T04:57:50.741Z,100087.97
2023-02-11T05:00:17.586Z,100098.50
2023-02-11T05:02:44.198Z,100100.28
2023-02-11T05:05:10.707Z,100108.00
2023-02-11T05:07:42.494Z,100100.22
2023-02-11T05:10:09.244Z,100107.19
2023-02-11T05:12:35.680Z,100116.75
2023-02-11T05:15:02.173Z,100121.88
2023-02-11T05:17:28.636Z,100119.97
2023-02-11T05:19:55.117Z,100118.13
2023-02-11T05:22:22.093Z,100112.81
2023-02-11T05:24:50.114Z,100111.06
2023-02-11T05:27:16.683Z,100113.53
2023-02-11T05:29:43.187Z,100118.69
2023-02-11T05:32:09.651Z,100116.94
2023-02-11T05:34:36.845Z,100111.75
2023-02-11T05:37:03.520Z,100114.38
2023-02-11T05:39:30.048Z,100117.00
2023-02-11T05:41:56.610Z,100111.81
2023-02-11T05:44:23.255Z,100104.97
2023-02-11T05:46:49.764Z,100102.44
2023-02-11T05:49:17.885Z,100096.38
2023-02-11T05:51:44.385Z,100089.41
2023-02-11T05:54:10.984Z,100089.41
2023-02-11T05:56:37.539Z,100091.28
2023-02-11T05:59:04.114Z,100096.41
2023-02-11T06:01:30.693Z,100093.78
2023-02-11T06:03:57.217Z,100086.00
2023-02-11T06:06:25.165Z,100090.34
2023-02-11T06:08:52.028Z,100093.06
2023-02-11T06:11:18.799Z,100087.72
2023-02-11T06:13:45.715Z,100091.06
2023-02-11T06:16:12.276Z,100087.47
2023-02-11T06:18:38.781Z,100083.19
2023-02-11T06:21:14.881Z,100088.44
2023-02-11T06:23:43.633Z,100079.66
2023-02-11T06:26:19.904Z,100072.75
2023-02-11T06:28:46.812Z,100081.44
2023-02-11T06:31:14.342Z,100086.59
2023-02-11T06:33:41.295Z,100088.34
2023-02-11T06:36:20.554Z,100090.97
2023-02-11T06:38:47.836Z,100093.78
2023-02-11T06:41:17.214Z,100093.66
2023-02-11T06:43:44.390Z,100094.50
2023-02-11T06:46:11.006Z,100099.91
2023-02-11T06:48:37.745Z,100110.34
2023-02-11T06:51:07.872Z,100113.75
2023-02-11T06:53:44.256Z,100126.59
2023-02-11T06:56:15.196Z,100126.47
2023-02-11T06:58:42.316Z,100130.75
2023-02-11T07:01:13.222Z,100126.28
2023-02-11T07:03:45.987Z,100129.97
2023-02-11T07:06:17.994Z,100131.81
2023-02-11T07:08:45.946Z,100128.22
2023-02-11T07:11:19.417Z,100132.44
2023-02-11T07:13:47.147Z,100127.03
2023-02-11T07:16:19.837Z,100127.97
2023-02-11T07:18:47.907Z,100128.09
2023-02-11T07:21:18.933Z,100131.66
2023-02-11T07:23:46.502Z,100137.69
2023-02-11T07:26:16.876Z,100138.69
2023-02-11T07:28:44.527Z,100144.72
2023-02-11T07:31:18.480Z,100149.09
2023-02-11T07:33:45.955Z,100143.72
2023-02-11T07:36:15.320Z,100153.22
2023-02-11T07:38:42.708Z,100145.41
2023-02-11T07:41:13.987Z,100144.47
2023-02-11T07:43:41.996Z,100145.06
2023-02-11T07:46:13.509Z,100152.03
2023-02-11T07:48:40.268Z,100147.72
2023-02-11T07:51:17.770Z,100153.09
2023-02-11T07:53:45.279Z,100165.19
2023-02-11T07:56:14.137Z,100165.44
2023-02-11T07:58:42.957Z,100166.31
2023-02-11T08:01:14.312Z,100167.88
2023-02-11T08:03:42.824Z,100171.34
2023-02-11T08:06:14.847Z,100172.19
2023-02-11T08:08:42.472Z,100169.50
2023-02-11T08:11:15.389Z,100172.91
2023-02-11T08:13:42.049Z,100179.22
2023-02-11T08:16:09.616Z,100182.75
2023-02-11T08:18:36.800Z,100187.28
2023-02-11T08:21:08.880Z,100181.28
2023-02-11T08:23:41.347Z,100183.00
2023-02-11T08:26:14.548Z,100183.00
2023-02-11T08:28:44.578Z,100188.00
2023-02-11T08:31:17.266Z,100186.97
2023-02-11T08:33:44.551Z,100182.81
2023-02-11T08:36:20.806Z,100177.66
2023-02-11T08:38:47.580Z,100180.31
2023-02-11T08:41:15.061Z,100185.44
2023-02-11T08:43:43.521Z,100182.75
2023-02-11T08:46:15.705Z,100181.97
2023-02-11T08:48:43.561Z,100183.63
2023-02-11T08:51:15.586Z,100186.16
2023-02-11T08:53:42.392Z,100187.84
2023-02-11T08:56:13.358Z,100192.19
2023-02-11T08:58:40.558Z,100194.94
2023-02-11T09:01:18.286Z,100196.78
2023-02-11T09:03:44.992Z,100203.72
2023-02-11T09:06:13.909Z,100208.88
2023-02-11T09:08:47.000Z,100212.19
2023-02-11T09:11:13.860Z,100204.41
2023-02-11T09:13:43.272Z,100206.22
2023-02-11T09:16:18.519Z,100209.78
2023-02-11T09:18:45.653Z,100211.53
2023-02-11T09:21:13.383Z,100220.06
2023-02-11T09:23:43.479Z,100219.91
2023-02-11T09:26:16.053Z,100227.69
2023-02-11T09:28:42.881Z,100225.97
2023-02-11T09:31:17.434Z,100226.88
2023-02-11T09:33:47.977Z,100230.47
2023-02-11T09:36:21.795Z,100228.81
2023-02-11T09:38:49.146Z,100232.03
2023-02-11T09:41:54.336Z,100232.16
2023-02-11T09:44:25.618Z,100226.78
2023-02-11T09:47:30.515Z,100226.94
2023-02-11T09:50:04.680Z,100232.97
2023-02-11T09:52:44.964Z,100237.25
2023-02-11T09:55:28.443Z,100236.41
2023-02-11T09:57:56.735Z,100242.38
2023-02-11T10:00:36.761Z,100242.38
2023-02-11T10:03:30.878Z,100244.72
2023-02-11T10:06:13.413Z,100247.28
2023-02-11T10:08:50.996Z,100251.63
2023-02-11T10:11:49.502Z,100255.13
2023-02-11T10:14:21.745Z,100244.75
2023-02-11T10:17:13.172Z,100239.38
2023-02-11T10:20:03.574Z,100234.50
2023-02-11T10:22:43.079Z,100238.91
2023-02-11T10:25:33.547Z,100255.44
2023-02-11T10:28:10.422Z,100255.31
2023-02-11T10:30:59.739Z,100269.16
2023-02-11T10:33:47.444Z,100266.50
2023-02-11T10:36:17.717Z,100260.91
2023-02-11T10:38:44.691Z,100257.84
2023-02-11T10:41:22.549Z,100261.06
2023-02-11T10:43:50.838Z,100244.38
2023-02-11T10:46:31.879Z,100249.50
2023-02-11T10:48:58.507Z,100246.66
2023-02-11T10:51:33.577Z,100243.94
2023-02-11T10:54:11.956Z,100246.63
2023-02-11T10:56:52.807Z,100241.22
2023-02-11T10:59:40.011Z,100237.00
2023-02-11T11:02:34.710Z,100238.47
2023-02-11T11:05:23.690Z,100241.81
2023-02-11T11:08:01.664Z,100243.28
2023-02-11T11:10:43.178Z,100237.97
2023-02-11T11:13:35.424Z,100241.38
2023-02-11T11:16:29.383Z,100244.59
2023-02-11T11:19:08.187Z,100240.44
2023-02-11T11:21:42.105Z,100238.72
2023-02-11T11:24:40.586Z,100238.72
2023-02-11T11:27:16.630Z,100234.34
2023-02-11T11:29:51.470Z,100239.69
2023-02-11T11:32:27.959Z,100250.97
2023-02-11T11:35:05.529Z,100250.78
2023-02-11T11:37:36.403Z,100240.06
2023-02-11T11:40:15.000Z,100249.72
2023-02-11T11:42:42.021Z,100243.34
2023-02-11T11:45:20.320Z,100242.28
2023-02-11T11:48:03.093Z,100245.91
2023-02-11T11:50:43.312Z,100243.13
2023-02-11T11:53:40.676Z,100254.41
2023-02-11T11:56:16.646Z,100248.63
2023-02-11T11:58:46.645Z,100246.97
2023-02-11T12:01:36.509Z,100247.94
2023-02-11T12:04:38.439Z,100238.47
2023-02-11T12:07:31.502Z,100240.38
2023-02-11T12:10:18.645Z,100238.47
2023-02-11T12:12:56.967Z,100241.53
2023-02-11T12:15:45.183Z,100228.19
2023-02-11T12:18:44.338Z,100231.88
2023-02-11T12:21:56.269Z,100236.22
2023-02-11T12:25:09.606Z,100236.88
2023-02-11T12:27:47.584Z,100229.03
2023-02-11T12:30:20.613Z,100225.56
2023-02-11T12:33:11.669Z,100228.28
2023-02-11T12:36:06.806Z,100231.69
2023-02-11T12:39:00.455Z,100232.69
2023-02-11T12:42:25.278Z,100223.81
2023-02-11T12:45:12.873Z,100228.97
2023-02-11T12:48:13.382Z,100221.25
2023-02-11T12:51:14.758Z,100217.84
2023-02-11T12:53:58.755Z,100219.53
2023-02-11T12:57:06.680Z,100214.41
2023-02-11T12:59:49.808Z,100216.38
2023-02-11T13:02:28.610Z,100218.56
2023-02-11T13:05:04.018Z,100212.34
2023-02-11T13:07:45.635Z,100217.53
2023-02-11T13:10:17.888Z,100215.63
2023-02-11T13:13:09.483Z,100214.72
2023-02-11T13:15:37.091Z,100200.03
2023-02-11T13:18:44.040Z,100198.38
2023-02-11T13:21:21.702Z,100211.50
2023-02-11T13:24:15.699Z,100207.81
2023-02-11T13:27:00.195Z,100208.34
2023-02-11T13:30:21.056Z,100207.44
2023-02-11T13:32:56.564Z,100206.66
2023-02-11T13:35:40.793Z,100208.63
2023-02-11T13:38:25.501Z,100202.53
2023-02-11T13:41:05.114Z,100204.53
2023-02-11T13:43:36.340Z,100196.47
2023-02-11T13:46:07.087Z,100209.31
2023-02-11T13:48:40.025Z,100201.50
2023-02-11T13:51:15.428Z,100203.22
2023-02-11T13:53:57.378Z,100207.66
2023-02-11T13:56:31.974Z,100204.41
2023-02-11T13:59:06.377Z,100199.72
2023-02-11T14:02:06.811Z,100209.25
2023-02-11T14:04:52.644Z,100215.44
2023-02-11T14:07:53.277Z,100211.16
2023-02-11T14:10:41.352Z,100219.81
2023-02-11T14:13:25.796Z,100222.53
2023-02-11T14:16:17.084Z,100222.47
2023-02-11T14:18:55.916Z,100222.25
2023-02-11T14:21:32.232Z,100223.03
2023-02-11T14:24:01.440Z,100224.09
2023-02-11T14:26:47.195Z,100225.84
2023-02-11T14:29:44.477Z,100232.13
2023-02-11T14:32:43.860Z,100217.84
2023-02-11T14:35:22.971Z,100217.78
2023-02-11T14:38:15.756Z,100219.44
2023-02-11T14:40:54.055Z,100224.47
2023-02-11T14:43:29.538Z,100225.47
2023-02-11T14:45:58.825Z,100226.44
2023-02-11T14:48:37.932Z,100235.84
2023-02-11T14:51:13.743Z,100225.50
2023-02-11T14:53:48.959Z,100246.72
2023-02-11T14:56:26.411Z,100244.19
2023-02-11T14:58:55.266Z,100230.22
2023-02-11T15:01:36.318Z,100230.03
2023-02-11T15:04:06.348Z,100239.72
2023-02-11T15:06:47.465Z,100235.63
2023-02-11T15:09:19.856Z,100243.53
2023-02-11T15:11:49.709Z,100241.75
2023-02-11T15:14:26.409Z,100238.16
2023-02-11T15:16:56.242Z,100244.84
2023-02-11T15:19:47.309Z,100243.00
2023-02-11T15:22:29.272Z,100241.03
2023-02-11T15:25:19.380Z,100248.66
2023-02-11T15:27:48.762Z,100256.47
2023-02-11T15:30:21.045Z,100253.16
2023-02-11T15:32:57.898Z,100251.44
2023-02-11T15:35:36.567Z,100252.16
2023-02-11T15:38:04.767Z,100262.22
2023-02-11T15:40:35.681Z,100261.16
2023-02-11T15:43:07.584Z,100264.84
2023-02-11T15:45:57.082Z,100265.84
2023-02-11T15:48:37.140Z,100275.63
2023-02-11T15:51:20.615Z,100278.31
2023-02-11T15:53:56.666Z,100275.41
2023-02-11T15:56:29.737Z,100269.13
2023-02-11T15:59:00.627Z,100273.66
2023-02-11T16:01:37.023Z,100264.91
2023-02-11T16:04:05.458Z,100259.41
2023-02-11T16:06:41.608Z,100272.53
2023-02-11T16:09:11.069Z,100274.59
2023-02-11T16:11:58.028Z,100282.34
2023-02-11T16:14:31.421Z,100284.75
2023-02-11T16:17:26.310Z,100281.13
2023-02-11T16:19:54.150Z,100298.38
2023-02-11T16:22:30.341Z,100299.53
2023-02-11T16:24:59.708Z,100293.50
2023-02-11T16:27:40.230Z,100298.53
2023-02-11T16:30:40.365Z,100294.91
2023-02-11T16:33:10.767Z,100301.84
2023-02-11T16:35:37.568Z,100310.78
2023-02-11T16:38:04.066Z,100311.69
2023-02-11T16:40:30.608Z,100295.81
2023-02-11T16:42:57.044Z,100311.38
2023-02-11T16:45:23.577Z,100306.22
2023-02-11T16:47:50.188Z,100302.78
2023-02-11T16:50:24.177Z,100310.75
2023-02-11T16:52:52.352Z,100310.59
2023-02-11T16:55:25.280Z,100313.94
2023-02-11T16:57:51.875Z,100319.06
2023-02-11T17:00:19.055Z,100318.06
2023-02-11T17:02:45.833Z,100312.69
2023-02-11T17:05:20.382Z,100317.03
2023-02-11T17:07:46.888Z,100308.50
2023-02-11T17:10:20.572Z,100313.75
2023-02-11T17:12:48.234Z,100310.91
2023-02-11T17:15:14.861Z,100299.56
2023-02-11T17:17:41.552Z,100304.13
2023-02-11T17:20:11.078Z,100300.94
2023-02-11T17:22:37.602Z,100312.59
2023-02-11T17:25:04.276Z,100317.22
2023-02-11T17:27:30.790Z,100316.16
2023-02-11T17:29:57.297Z,100320.28
2023-02-11T17:32:23.975Z,100322.00
2023-02-11T17:34:53.634Z,100323.13
2023-02-11T17:37:20.228Z,100324.88
2023-02-11T17:39:49.142Z,100325.84
2023-02-11T17:42:15.777Z,100319.66
2023-02-11T17:44:44.241Z,100325.47
2023-02-11T17:47:11.920Z,100324.41
2023-02-11T17:49:39.660Z,100329.81
2023-02-11T17:52:06.212Z,100323.81
2023-02-11T17:54:32.728Z,100333.41
2023-02-11T17:56:59.180Z,100335.44
2023-02-11T17:59:26.452Z,100340.81
2023-02-11T18:01:52.996Z,100339.91
2023-02-11T18:04:20.328Z,100346.88
2023-02-11T18:06:47.372Z,100355.53
2023-02-11T18:09:13.923Z,100352.06
2023-02-11T18:11:40.990Z,100354.53
2023-02-11T18:14:08.526Z,100351.09
2023-02-11T18:16:38.827Z,100346.59
2023-02-11T18:19:07.512Z,100342.00
2023-02-11T18:21:34.146Z,100339.19
2023-02-11T18:24:07.364Z,100340.75
2023-02-11T18:26:35.102Z,100341.56
2023-02-11T18:29:03.732Z,100345.44
2023-02-11T18:31:31.755Z,100359.75
2023-02-11T18:33:58.371Z,100364.22
2023-02-11T18:36:24.880Z,100370.22
2023-02-11T18:38:53.238Z,100368.22
2023-02-11T18:41:20.886Z,100369.72
2023-02-11T18:43:47.405Z,100366.91
2023-02-11T18:46:16.062Z,100372.81
2023-02-11T18:48:44.749Z,100369.31
2023-02-11T18:51:18.673Z,100375.53
2023-02-11T18:53:45.673Z,100374.59
2023-02-11T18:56:20.769Z,100380.09
2023-02-11T18:58:49.285Z,100382.03
2023-02-11T19:01:24.312Z,100378.44
2023-02-11T19:03:51.482Z,100375.63
2023-02-11T19:06:32.450Z,100373.84
2023-02-11T19:09:04.021Z,100371.97
2023-02-11T19:11:47.839Z,100377.28
2023-02-11T19:14:27.575Z,100378.72
2023-02-11T19:17:03.209Z,100388.66
2023-02-11T19:19:33.764Z,100387.94
2023-02-11T19:22:02.208Z,100393.81
2023-02-11T19:24:30.156Z,100398.03
2023-02-11T19:27:00.298Z,100396.06
2023-02-11T19:29:28.396Z,100397.59
2023-02-11T19:31:55.396Z,100391.47
2023-02-11T19:34:22.335Z,100395.97
2023-02-11T19:36:49.979Z,100398.59
2023-02-11T19:39:18.332Z,100395.84
2023-02-11T19:41:44.864Z,100404.59
2023-02-11T19:44:14.325Z,100405.47
2023-02-11T19:46:41.092Z,100400.31
2023-02-11T19:49:09.884Z,100403.66
2023-02-11T19:51:39.143Z,100399.19
2023-02-11T19:54:07.414Z,100405.34
2023-02-11T19:56:34.290Z,100411.47
2023-02-11T19:59:03.069Z,100412.34
2023-02-11T20:01:32.060Z,100402.63
2023-02-11T20:03:58.673Z,100403.31
2023-02-11T20:06:32.008Z,100405.97
2023-02-11T20:09:13.449Z,100398.09
2023-02-11T20:11:43.180Z,100398.16
2023-02-11T20:14:13.019Z,100397.25
2023-02-11T20:16:48.032Z,100405.94
2023-02-11T20:19:21.872Z,100415.56
2023-02-11T20:21:52.484Z,100409.34
2023-02-11T20:24:20.159Z,100417.13
2023-02-11T20:26:48.322Z,100420.78
2023-02-11T20:29:18.888Z,100418.31
2023-02-11T20:31:45.893Z,100419.38
2023-02-11T20:34:12.597Z,100419.63
2023-02-11T20:36:40.405Z,100417.28
2023-02-11T20:39:08.034Z,100416.31
2023-02-11T20:41:39.085Z,100418.66
2023-02-11T20:44:10.742Z,100419.41
2023-02-11T20:46:41.527Z,100417.75
2023-02-11T20:49:12.031Z,100422.94
2023-02-11T20:51:39.488Z,100414.44
2023-02-11T20:54:07.567Z,100406.38
2023-02-11T20:56:36.994Z,100407.84
2023-02-11T20:59:05.703Z,100401.72
2023-02-11T21:01:36.983Z,100409.63
2023-02-11T21:04:14.377Z,100404.06
2023-02-11T21:06:48.714Z,100408.41
2023-02-11T21:09:20.034Z,100411.81
2023-02-11T21:11:48.449Z,100411.56
2023-02-11T21:14:15.347Z,100422.03
2023-02-11T21:16:42.177Z,100417.47
2023-02-11T21:19:08.738Z,100417.56
2023-02-11T21:21:37.982Z,100417.47
2023-02-11T21:24:06.896Z,100420.03
2023-02-11T21:26:35.335Z,100424.56
2023-02-11T21:29:07.346Z,100428.97
2023-02-11T21:31:35.993Z,100429.78
2023-02-11T21:34:03.196Z,100435.72
2023-02-11T21:36:30.987Z,100433.75
2023-02-11T21:38:57.843Z,100437.06
2023-02-11T21:41:24.833Z,100436.09
2023-02-11T21:43:52.407Z,100439.63
2023-02-11T21:46:20.568Z,100450.34
2023-02-11T21:48:47.954Z,100455.03
2023-02-11T21:51:26.250Z,100457.94
2023-02-11T21:54:01.505Z,100462.16
2023-02-11T21:56:30.654Z,100459.25
2023-02-11T21:58:59.605Z,100458.94
2023-02-11T22:01:30.489Z,100465.88
2023-02-11T22:03:58.440Z,100464.22
2023-02-11T22:06:32.982Z,100471.28
2023-02-11T22:09:05.888Z,100470.38
2023-02-11T22:11:32.541Z,100474.84
2023-02-11T22:13:59.294Z,100469.72
2023-02-11T22:16:28.144Z,100474.84
2023-02-11T22:18:58.433Z,100472.03
2023-02-11T22:21:28.221Z,100470.19
2023-02-11T22:23:55.822Z,100467.56
2023-02-11T22:26:26.296Z,100471.88
2023-02-11T22:28:53.817Z,100466.81
2023-02-11T22:31:28.274Z,100466.19
2023-02-11T22:33:55.275Z,100466.41
2023-02-11T22:36:26.436Z,100470.97
2023-02-11T22:38:59.435Z,100463.78
2023-02-11T22:41:26.001Z,100473.09
2023-02-11T22:43:52.487Z,100463.38
2023-02-11T22:46:19.982Z,100466.66
2023-02-11T22:48:48.498Z,100467.47
2023-02-11T22:51:19.619Z,100463.97
2023-02-11T22:54:07.122Z,100467.84
2023-02-11T22:56:35.231Z,100471.41
2023-02-11T22:59:06.229Z,100476.88
2023-02-11T23:01:33.784Z,100476.75
2023-02-11T23:04:04.321Z,100478.47
2023-02-11T23:06:31.410Z,100485.22
2023-02-11T23:08:57.987Z,100491.31
2023-02-11T23:11:28.683Z,100491.47
2023-02-11T23:13:55.577Z,100488.19
2023-02-11T23:16:30.692Z,100491.56
2023-02-11T23:19:01.128Z,100501.16
2023-02-11T23:21:31.914Z,100503.69
2023-02-11T23:24:10.923Z,100509.72
2023-02-11T23:26:40.695Z,100503.38
2023-02-11T23:29:07.724Z,100509.38
2023-02-11T23:31:39.744Z,100507.72
2023-02-11T23:34:08.241Z,100504.94
2023-02-11T23:36:35.471Z,100502.34
2023-02-11T23:39:02.820Z,100509.28
2023-02-11T23:41:29.521Z,100506.59
2023-02-11T23:43:58.961Z,100500.47
2023-02-11T23:46:27.530Z,100500.47
2023-02-11T23:48:54.424Z,100493.38
2023-02-11T23:51:21.750Z,100493.44
2023-02-11T23:53:53.658Z,100491.72
2023-02-11T23:56:27.668Z,100493.56
2023-02-11T23:58:57.735Z,100494.44
